Danbury, IA (51019)

1:16 AM CST on February 14, 2016 (GMT -0600)
The Danbury Review | | Change Station
CLOSE
Current Station
Personal Weather Station
Location: Danbury, IA
Elevation: 1162 ft
Nearby Weather Stations

Elev 1162 ft 42.24 °N, 95.72 °W | Updated 1 minute ago

Overcast
Overcast
16.6 °F
Feels Like 10 °F
N
4.0
Wind Variable Wind from ESE
Gusts 9.0 mph

Today
High -- | Low -- °F
--% Chance of Precip.
Yesterday
High -- | Low -- °F
Precip. -- in
Pressure 30.11 in
Visibility -9999.0 miles
Clouds Overcast 4300 ft
Windchill 10 °F
Dew Point 10 °F
Humidity 76%
Rainfall 0.00 in
Snow Depth Not available.
7:21 AM 5:53 PM
Waxing Crescent, 39% visible
METAR KDNS 140655Z AUTO 14011KT OVC043 M09/M13 A3011 RMK AO2
Pressure 30.11 in
Visibility -9999.0 miles
Clouds Overcast 4300 ft
Windchill 10 °F
Dew Point 10 °F
Humidity 76%
Rainfall 0.00 in
Snow Depth Not available.
7:21 AM 5:53 PM
Waxing Crescent, 39% visible
METAR KDNS 140655Z AUTO 14011KT OVC043 M09/M13 A3011 RMK AO2

10-Day Weather Forecast

Almanac

Astronomy

Feb. 14, 2016 Rise Set
Actual Time
Civil Twilight
Nautical Twilight
Astronomical Twilight
Moon
Length of Visible Light
Length of Day
Tomorrow will be .
, % of the Moon is Illuminated

Today's Extremes

State Highs State Lows

Community

WunderPhotos

Upload Photos

1,892,757 photos uploaded!

WunderBlog® & News

Nearby

Air Quality

  Air Quality AQ Index Pollutant
Not available.

Snow Depth

Station Depth Elevation

Earthquake Activity

City Distance Mag. Time & Date
Minimum magnitude displayed is 2.5.

Coastal Water Temperatures

Place Temperature

Stations

Nearby Weather Stations

Station Location Temp. Windchill Dew Point Humidity Wind Precip. Elev Updated Type
                   

Watches & Warnings

There are currently no watches in effect.